Time;durP1;ratioP1;P1;durP2;ratioP2;P2;SDS_P1;SDS_P2;PMS_P1;PMS_P2;Temp;Humidity;BMP_temperature;BMP_pressure;BME280_temperature;BME280_humidity;BME280_pressure;Samples;Min_cycle;Max_cycle;Signal;HPM_P1;HPM_P2
2022/09/08 00:00:53;;;;;;;5.30;4.93;;;;;;;17.52;62.60;95216.34;5055979;28;20196;-72
2022/09/08 00:03:22;;;;;;;5.10;4.70;;;;;;;17.50;62.66;95221.53;5055132;28;20189;-72
2022/09/08 00:05:52;;;;;;;5.32;4.93;;;;;;;17.46;62.25;95220.69;5055242;28;20561;-72
2022/09/08 00:08:20;;;;;;;5.82;5.35;;;;;;;17.44;62.50;95225.88;4995378;28;1353482;-72
2022/09/08 00:10:50;;;;;;;5.00;4.60;;;;;;;17.44;62.70;95230.66;5055284;28;20568;-72
2022/09/08 00:13:17;;;;;;;5.38;4.97;;;;;;;17.41;62.19;95223.09;5055666;28;20208;-72
2022/09/08 00:15:44;;;;;;;6.70;5.43;;;;;;;17.39;62.50;95233.81;5056149;28;20310;-72
2022/09/08 00:18:11;;;;;;;5.60;5.05;;;;;;;17.36;62.57;95235.44;5055817;28;20514;-72
2022/09/08 00:20:38;;;;;;;5.80;5.20;;;;;;;17.33;62.39;95236.22;5055835;28;20193;-73
2022/09/08 00:23:04;;;;;;;5.25;4.85;;;;;;;17.31;62.54;95235.78;5055685;28;20194;-73
2022/09/08 00:25:33;;;;;;;5.47;4.97;;;;;;;17.29;62.75;95230.63;5055455;28;20197;-72
2022/09/08 00:28:00;;;;;;;5.43;5.03;;;;;;;17.29;62.84;95230.63;5055567;28;20201;-73
2022/09/08 00:30:26;;;;;;;5.75;5.13;;;;;;;17.25;62.75;95234.59;5055776;28;20247;-74
2022/09/08 00:32:53;;;;;;;5.18;4.72;;;;;;;17.20;62.84;95226.59;5055402;28;20212;-73
2022/09/08 00:35:21;;;;;;;5.80;5.28;;;;;;;17.15;62.36;95226.97;5054830;28;20209;-73
2022/09/08 00:37:49;;;;;;;7.65;5.18;;;;;;;17.12;62.96;95224.97;5054863;28;20229;-73
2022/09/08 00:40:16;;;;;;;5.32;4.93;;;;;;;17.14;62.51;95234.53;5055071;28;20205;-73
2022/09/08 00:42:44;;;;;;;5.28;4.82;;;;;;;17.12;62.50;95234.13;5055911;28;20284;-73
2022/09/08 00:45:15;;;;;;;5.35;4.95;;;;;;;17.14;62.69;95230.94;5055144;28;20190;-73
2022/09/08 00:47:44;;;;;;;6.65;4.82;;;;;;;17.14;62.90;95240.13;5055220;28;20526;-73
2022/09/08 00:50:14;;;;;;;5.10;4.63;;;;;;;17.11;62.66;95237.31;5054816;28;20189;-73
2022/09/08 00:52:44;;;;;;;5.10;4.70;;;;;;;17.11;62.85;95240.09;5055676;28;20205;-72
2022/09/08 00:55:11;;;;;;;5.25;4.75;;;;;;;17.09;62.88;95241.25;5055275;28;20198;-72
2022/09/08 00:57:38;;;;;;;5.57;4.68;;;;;;;17.09;63.16;95240.47;5054873;28;20225;-71
2022/09/08 01:00:09;;;;;;;5.20;4.80;;;;;;;17.10;63.48;95242.06;5055865;28;20193;-71
2022/09/08 01:02:36;;;;;;;5.80;5.20;;;;;;;17.07;63.41;95235.31;5055575;28;20497;-72
2022/09/08 01:05:06;;;;;;;5.05;4.65;;;;;;;17.02;63.46;95243.22;5055615;28;20201;-72
2022/09/08 01:13:32;;;;;;;5.60;5.07;;;;;;;16.90;63.29;95226.84;5055439;28;20200;-72
2022/09/08 01:16:00;;;;;;;5.38;4.88;;;;;;;16.87;63.21;95228.41;5054596;28;20229;-72
2022/09/08 01:18:27;;;;;;;5.47;5.07;;;;;;;16.87;63.39;95231.22;5054622;28;20209;-72
2022/09/08 01:21:00;;;;;;;4.82;4.47;;;;;;;16.87;64.06;95234.00;5055230;28;20232;-72
2022/09/08 01:24:06;;;;;;;5.30;4.88;;;;;;;16.85;64.11;95230.81;5054489;28;20190;-72
2022/09/08 01:26:45;;;;;;;5.63;5.18;;;;;;;16.87;64.04;95231.22;5054705;28;20194;-72
2022/09/08 01:29:13;;;;;;;5.75;4.93;;;;;;;16.84;63.71;95231.97;5088265;28;20202;-72
2022/09/08 01:31:43;;;;;;;5.55;5.00;;;;;;;16.80;63.47;95231.16;5054365;28;20205;-72
2022/09/08 01:34:10;;;;;;;5.50;4.78;;;;;;;16.79;63.38;95235.94;5054614;28;20540;-72
2022/09/08 01:36:37;;;;;;;5.30;4.90;;;;;;;16.80;63.67;95234.75;5054118;28;20243;-72
2022/09/08 01:39:04;;;;;;;5.30;4.80;;;;;;;16.82;63.68;95235.16;5054626;28;20205;-72
2022/09/08 01:41:31;;;;;;;5.32;4.85;;;;;;;16.77;63.74;95235.50;5055219;28;20185;-72
2022/09/08 01:43:57;;;;;;;6.00;5.13;;;;;;;16.72;63.85;95240.63;5054237;28;20206;-72
2022/09/08 01:46:25;;;;;;;5.57;5.07;;;;;;;16.69;63.72;95233.84;5054338;28;20197;-72
2022/09/08 01:48:52;;;;;;;5.50;5.00;;;;;;;16.70;63.84;95227.09;5054321;28;20197;-72
2022/09/08 01:51:19;;;;;;;6.18;5.57;;;;;;;16.69;64.15;95233.84;5054999;28;20533;-72
2022/09/08 01:53:46;;;;;;;5.50;5.10;;;;;;;16.68;64.02;95237.03;5054345;28;20198;-72
2022/09/08 01:56:12;;;;;;;5.38;4.97;;;;;;;16.66;63.88;95239.41;5054973;28;20210;-72
2022/09/08 01:58:39;;;;;;;6.03;5.53;;;;;;;16.66;63.99;95237.41;5054353;28;20197;-72
2022/09/08 02:01:06;;;;;;;6.50;5.90;;;;;;;16.66;63.44;95231.84;5054122;28;20208;-72
2022/09/08 02:03:34;;;;;;;5.72;5.20;;;;;;;16.64;63.88;95223.09;5055049;28;20190;-72
2022/09/08 02:06:02;;;;;;;5.68;5.03;;;;;;;16.59;63.97;95223.44;5054586;28;20189;-72
2022/09/08 02:08:29;;;;;;;5.65;5.10;;;;;;;16.55;63.95;95223.41;5053666;28;20589;-72
2022/09/08 02:10:58;;;;;;;5.65;5.07;;;;;;;16.53;63.76;95222.22;5053826;28;20213;-72
2022/09/08 02:13:25;;;;;;;5.55;5.03;;;;;;;16.54;63.93;95213.47;5055043;28;20193;-72
2022/09/08 02:15:58;;;;;;;7.22;5.40;;;;;;;16.53;63.90;95219.44;5053645;28;20193;-72
2022/09/08 02:18:25;;;;;;;7.70;5.63;;;;;;;16.51;63.80;95216.22;5054161;28;20209;-72
2022/09/08 02:21:01;;;;;;;5.15;4.75;;;;;;;16.48;64.12;95217.78;5054103;28;20209;-72
2022/09/08 02:23:28;;;;;;;5.32;4.93;;;;;;;16.46;64.08;95217.41;5053695;28;20683;-72
2022/09/08 02:25:55;;;;;;;5.70;5.20;;;;;;;16.41;64.02;95216.94;5053582;28;20201;-72
2022/09/08 02:28:22;;;;;;;5.97;5.35;;;;;;;16.39;63.87;95206.22;5053895;28;20247;-72
2022/09/08 02:30:48;;;;;;;6.20;5.60;;;;;;;16.36;63.76;95216.13;5054514;28;20185;-72
2022/09/08 02:33:15;;;;;;;6.18;5.38;;;;;;;16.36;63.91;95209.78;5054181;28;20186;-72
2022/09/08 02:35:42;;;;;;;5.90;5.32;;;;;;;16.33;64.04;95210.53;5053741;28;20285;-72
2022/09/08 02:38:29;;;;;;;6.82;5.55;;;;;;;16.31;64.38;95208.16;5053629;28;20210;-72
2022/09/08 02:40:56;;;;;;;6.30;4.95;;;;;;;16.29;64.50;95210.50;5053606;28;20194;-72
2022/09/08 02:43:23;;;;;;;5.70;5.20;;;;;;;16.28;64.58;95211.72;5053908;28;20190;-72
2022/09/08 02:45:50;;;;;;;5.53;5.00;;;;;;;16.28;64.44;95208.13;5053721;28;20536;-72
2022/09/08 02:48:17;;;;;;;5.95;4.88;;;;;;;16.28;64.32;95210.91;5053339;28;20202;-72
2022/09/08 02:50:44;;;;;;;5.85;5.35;;;;;;;16.28;64.34;95211.72;5054535;28;20212;-72
2022/09/08 02:53:11;;;;;;;6.55;5.75;;;;;;;16.29;64.64;95207.72;5054371;28;20186;-72
2022/09/08 02:55:40;;;;;;;7.95;5.38;;;;;;;16.27;64.31;95210.13;5053575;28;20198;-72
2022/09/08 02:58:07;;;;;;;6.57;5.78;;;;;;;16.20;64.44;95203.69;5053257;28;20214;-72
2022/09/08 03:00:34;;;;;;;6.05;5.43;;;;;;;16.14;64.39;95206.03;5056257;28;20201;-72
2022/09/08 03:03:01;;;;;;;9.73;5.93;;;;;;;16.13;64.26;95212.78;5056961;28;20205;-72
2022/09/08 03:05:28;;;;;;;6.15;5.57;;;;;;;16.16;64.01;95202.84;5057279;28;20201;-72
2022/09/08 03:07:55;;;;;;;6.68;5.93;;;;;;;16.13;64.17;95199.66;5057022;28;20233;-72
2022/09/08 03:10:23;;;;;;;5.68;5.18;;;;;;;16.12;64.38;95209.22;5057169;28;20194;-72
2022/09/08 03:12:52;;;;;;;6.68;5.53;;;;;;;16.08;64.41;95213.91;5057231;28;20212;-72
2022/09/08 03:15:19;;;;;;;6.03;5.35;;;;;;;16.05;64.51;95214.72;5056745;28;20198;-72
2022/09/08 03:17:46;;;;;;;7.05;5.75;;;;;;;16.03;64.66;95214.28;5057030;28;20252;-72
2022/09/08 03:20:14;;;;;;;6.95;5.25;;;;;;;16.00;64.55;95211.47;5056671;28;20194;-72
2022/09/08 03:22:40;;;;;;;5.25;4.68;;;;;;;15.99;64.78;95207.09;5057051;28;20201;-72
2022/09/08 03:25:08;;;;;;;6.05;5.47;;;;;;;15.97;64.82;95221.38;5056985;28;20212;-72
2022/09/08 03:27:36;;;;;;;6.05;5.47;;;;;;;15.97;64.81;95217.81;5056937;28;20205;-72
2022/09/08 03:30:05;;;;;;;8.55;5.80;;;;;;;15.97;65.09;95220.59;5057570;28;20186;-72
2022/09/08 03:32:33;;;;;;;6.70;6.00;;;;;;;15.98;65.06;95224.97;5057216;28;20221;-72
2022/09/08 03:35:00;;;;;;;8.23;5.85;;;;;;;15.98;64.49;95225.78;5090208;28;20202;-72
2022/09/08 03:37:28;;;;;;;6.22;5.63;;;;;;;15.95;65.16;95225.75;5057347;28;20638;-72
2022/09/08 03:39:54;;;;;;;5.72;5.10;;;;;;;15.93;65.16;95226.13;5057452;28;20217;-72
2022/09/08 03:42:21;;;;;;;7.10;5.82;;;;;;;15.95;65.38;95220.19;5057715;28;20517;-73
2022/09/08 03:44:48;;;;;;;6.43;5.82;;;;;;;15.94;65.22;95218.56;5056361;28;20209;-72
2022/09/08 03:47:16;;;;;;;6.20;5.60;;;;;;;15.89;65.15;95216.94;5056656;28;20206;-72
2022/09/08 03:49:43;;;;;;;8.05;6.03;;;;;;;15.83;64.84;95210.94;5056321;28;20194;-72
2022/09/08 03:52:10;;;;;;;8.43;5.80;;;;;;;15.82;64.94;95216.88;5056028;28;20201;-72
2022/09/08 03:54:49;;;;;;;9.75;6.75;;;;;;;15.83;65.05;95215.69;5056800;28;20197;-72
2022/09/08 03:57:16;;;;;;;8.32;5.90;;;;;;;15.81;65.13;95220.84;5056772;28;20653;-72
2022/09/08 03:59:43;;;;;;;7.30;6.07;;;;;;;15.80;65.17;95224.81;5056307;28;20209;-72
2022/09/08 04:02:10;;;;;;;7.22;5.78;;;;;;;15.79;65.36;95228.75;5056206;28;20202;-72
2022/09/08 04:04:39;;;;;;;7.53;5.68;;;;;;;15.74;65.57;95235.47;5056380;28;20189;-72
2022/09/08 04:07:06;;;;;;;7.75;5.53;;;;;;;15.70;65.41;95242.19;5055748;28;20237;-72
2022/09/08 04:09:32;;;;;;;7.75;6.70;;;;;;;15.71;65.22;95238.22;5056485;28;20273;-72
2022/09/08 04:11:59;;;;;;;7.00;6.07;;;;;;;15.77;65.40;95234.72;5054751;28;20198;-72
2022/09/08 04:14:26;;;;;;;6.38;5.88;;;;;;;15.83;65.06;95235.16;5056272;28;20613;-72
2022/09/08 04:16:53;;;;;;;9.07;6.35;;;;;;;15.87;65.03;95236.81;5055932;28;20233;-72
2022/09/08 04:19:19;;;;;;;8.32;5.95;;;;;;;15.89;65.02;95230.84;5056394;28;20203;-72
2022/09/08 04:21:48;;;;;;;7.30;6.00;;;;;;;15.88;64.52;95230.06;5055706;28;20197;-72
2022/09/08 04:24:15;;;;;;;5.93;5.50;;;;;;;15.89;64.47;95230.84;5055716;28;20534;-72
2022/09/08 04:26:41;;;;;;;6.50;5.82;;;;;;;15.87;64.19;95227.66;5055602;28;20206;-73
2022/09/08 04:29:08;;;;;;;7.03;6.03;;;;;;;15.86;64.09;95231.59;5055607;28;20190;-73
2022/09/08 04:31:35;;;;;;;6.30;5.80;;;;;;;15.88;64.33;95226.47;5055737;28;20577;-72
2022/09/08 04:34:02;;;;;;;6.38;5.78;;;;;;;15.89;64.43;95226.09;5055587;28;20613;-71
2022/09/08 04:36:29;;;;;;;6.38;5.72;;;;;;;15.87;64.60;95225.69;5055453;28;20602;-71
2022/09/08 04:39:00;;;;;;;7.45;6.53;;;;;;;15.87;64.68;95230.44;5055151;28;20228;-71
2022/09/08 04:41:28;;;;;;;8.55;6.38;;;;;;;15.88;64.68;95234.81;5055215;28;20205;-71
2022/09/08 04:43:56;;;;;;;7.10;6.15;;;;;;;15.91;64.84;95238.81;5055251;28;20201;-71
2022/09/08 04:46:23;;;;;;;6.72;5.93;;;;;;;15.93;64.41;95228.09;5055080;28;20213;-71
2022/09/08 04:48:50;;;;;;;6.80;5.82;;;;;;;15.95;64.20;95231.31;5055158;28;20197;-71
2022/09/08 04:51:19;;;;;;;6.85;5.72;;;;;;;15.96;64.68;95228.13;5055025;28;20204;-71
2022/09/08 04:53:46;;;;;;;9.85;6.35;;;;;;;15.99;64.98;95229.34;5055012;28;20194;-72
2022/09/08 04:56:16;;;;;;;11.38;6.63;;;;;;;16.00;65.01;95230.94;5055213;28;20197;-71
2022/09/08 04:58:43;;;;;;;7.65;6.40;;;;;;;16.00;64.85;95230.94;5055401;28;20213;-72
2022/09/08 05:01:12;;;;;;;8.35;6.63;;;;;;;15.99;65.23;95234.91;5055189;28;20292;-71
2022/09/08 05:03:39;;;;;;;7.15;6.45;;;;;;;15.96;65.53;95239.25;5055270;28;20198;-71
2022/09/08 05:06:07;;;;;;;6.00;5.50;;;;;;;15.96;65.08;95239.25;5055592;28;20190;-70
2022/09/08 05:08:34;;;;;;;8.43;6.30;;;;;;;15.98;64.59;95245.25;5054664;28;20229;-70
2022/09/08 05:11:02;;;;;;;8.93;5.70;;;;;;;16.03;64.41;95249.66;5054581;28;20194;-71
2022/09/08 05:13:31;;;;;;;8.35;6.35;;;;;;;16.04;64.64;95248.47;5054913;28;20201;-70
2022/09/08 05:16:05;;;;;;;6.65;6.05;;;;;;;16.05;65.09;95252.84;5054523;28;20201;-70
2022/09/08 05:18:32;;;;;;;6.75;6.15;;;;;;;16.10;64.77;95252.50;5054739;28;20232;-70
2022/09/08 05:20:59;;;;;;;7.03;6.30;;;;;;;16.14;64.52;95256.13;5054469;28;20189;-70
2022/09/08 05:23:25;;;;;;;6.43;5.82;;;;;;;16.15;64.14;95257.69;5054067;28;20194;-70
2022/09/08 05:25:57;;;;;;;6.30;5.80;;;;;;;16.13;64.16;95266.44;5054389;28;20212;-70
2022/09/08 05:28:24;;;;;;;6.45;5.85;;;;;;;16.16;64.18;95264.06;5054769;28;20243;-70
2022/09/08 05:30:53;;;;;;;6.05;5.47;;;;;;;16.19;64.39;95260.53;5054391;28;20196;-70
2022/09/08 05:33:20;;;;;;;6.63;5.82;;;;;;;16.23;63.81;95256.59;5054490;28;20186;-70
2022/09/08 05:35:47;;;;;;;6.32;5.80;;;;;;;16.29;63.81;95257.03;5054607;28;20193;-70
2022/09/08 05:38:14;;;;;;;8.75;6.22;;;;;;;16.34;63.74;95253.91;5054263;28;20312;-71
2022/09/08 05:40:41;;;;;;;6.40;5.90;;;;;;;16.35;63.91;95258.28;5054180;28;20209;-71
2022/09/08 05:43:08;;;;;;;8.00;5.60;;;;;;;16.37;63.80;95258.69;5054163;28;20209;-70
2022/09/08 05:45:35;;;;;;;6.03;5.43;;;;;;;16.40;63.81;95260.69;5053998;28;20186;-70
2022/09/08 05:48:03;;;;;;;8.55;6.07;;;;;;;16.43;63.69;95261.91;5054112;28;20209;-70
2022/09/08 05:50:34;;;;;;;8.18;5.70;;;;;;;16.45;63.88;95268.72;5054314;28;20194;-69
2022/09/08 05:53:01;;;;;;;6.97;5.88;;;;;;;16.48;63.60;95264.34;5053979;28;20197;-70
2022/09/08 05:55:29;;;;;;;6.05;5.50;;;;;;;16.50;63.03;95259.19;5054269;28;20202;-70
2022/09/08 05:57:56;;;;;;;6.75;6.10;;;;;;;16.56;63.55;95261.22;5054181;28;20274;-70
2022/09/08 06:00:24;;;;;;;6.85;6.20;;;;;;;16.61;63.13;95257.28;5055138;28;20216;-70
2022/09/08 06:02:51;;;;;;;6.43;5.70;;;;;;;16.65;63.06;95262.88;5054120;28;20201;-69
2022/09/08 06:05:20;;;;;;;6.10;5.50;;;;;;;16.69;62.27;95263.69;5054149;28;20190;-69
2022/09/08 06:07:47;;;;;;;6.45;5.95;;;;;;;16.72;62.21;95260.13;5053954;28;20229;-69
2022/09/08 06:10:15;;;;;;;9.15;8.32;;;;;;;16.75;62.13;95268.53;5053838;28;20208;-69
2022/09/08 06:12:41;;;;;;;8.52;7.72;;;;;;;16.76;62.68;95270.13;5054143;28;20201;-69
2022/09/08 06:15:09;;;;;;;8.30;7.50;;;;;;;16.81;62.43;95268.97;5054167;28;20207;-69
2022/09/08 06:17:36;;;;;;;9.25;7.22;;;;;;;16.87;62.33;95267.41;5053690;28;20232;-69
2022/09/08 06:20:04;;;;;;;8.05;7.07;;;;;;;16.91;62.73;95267.44;5054980;28;20194;-69
2022/09/08 06:22:34;;;;;;;7.55;6.85;;;;;;;16.93;62.27;95268.66;5054558;28;20204;-69
2022/09/08 06:25:02;;;;;;;8.27;7.47;;;;;;;16.98;61.86;95267.47;5054022;28;20533;-69
2022/09/08 06:27:35;;;;;;;7.25;6.55;;;;;;;17.02;61.64;95279.44;5054028;28;20198;-69
2022/09/08 06:30:05;;;;;;;7.80;6.95;;;;;;;17.05;61.68;95273.09;5053576;28;20202;-69
2022/09/08 06:32:37;;;;;;;9.20;8.48;;;;;;;17.08;61.67;95280.69;5054221;28;20194;-69
2022/09/08 06:35:08;;;;;;;9.23;8.15;;;;;;;17.09;61.96;95283.06;5056056;28;20201;-69
2022/09/08 06:37:41;;;;;;;9.57;8.45;;;;;;;17.12;61.43;95292.66;5091112;28;20231;-69
2022/09/08 06:40:12;;;;;;;9.85;8.30;;;;;;;17.19;61.15;95286.31;5057660;28;20225;-69
2022/09/08 06:42:47;;;;;;;11.85;8.10;;;;;;;17.25;61.34;95290.34;5057579;28;20198;-69
2022/09/08 06:45:23;;;;;;;9.35;7.97;;;;;;;17.30;61.15;95282.38;5057434;28;20197;-69
2022/09/08 06:47:57;;;;;;;11.05;9.95;;;;;;;17.33;61.40;95287.19;5057439;28;20193;-69
2022/09/08 06:50:25;;;;;;;9.75;8.77;;;;;;;17.35;61.08;95289.56;5057380;28;20198;-69
2022/09/08 06:52:54;;;;;;;8.77;7.97;;;;;;;17.36;61.18;95293.97;5057834;28;20201;-69
2022/09/08 06:55:27;;;;;;;8.43;7.55;;;;;;;17.37;61.54;95292.78;5057666;28;20193;-69
2022/09/08 06:58:06;;;;;;;10.57;7.50;;;;;;;17.39;61.36;95284.00;5057567;28;20225;-71
2022/09/08 07:00:41;;;;;;;8.05;7.25;;;;;;;17.40;61.46;95292.00;5057190;28;20198;-71
2022/09/08 07:03:18;;;;;;;7.78;6.65;;;;;;;17.42;61.00;95291.59;5057079;28;20560;-71
2022/09/08 07:06:07;;;;;;;7.80;6.60;;;;;;;17.49;61.06;95291.63;5056980;28;20201;-71
2022/09/08 07:08:49;;;;;;;7.28;6.57;;;;;;;17.56;61.07;95297.22;5053023;28;20241;-71
2022/09/08 07:11:31;;;;;;;6.97;6.38;;;;;;;17.60;60.48;95292.47;5056988;28;20216;-71
2022/09/08 07:14:03;;;;;;;7.95;7.25;;;;;;;17.66;60.49;95299.25;5057370;28;20206;-71
2022/09/08 07:16:35;;;;;;;11.35;9.68;;;;;;;17.73;60.51;95295.72;5057615;28;20526;-71
2022/09/08 07:19:07;;;;;;;12.60;11.30;;;;;;;17.83;60.60;95296.94;5057032;28;20540;-71
2022/09/08 07:21:43;;;;;;;11.18;9.95;;;;;;;17.90;60.50;95292.19;5056705;28;20209;-71
2022/09/08 07:24:15;;;;;;;9.75;8.80;;;;;;;17.96;60.29;95300.97;5057106;28;20203;-71
2022/09/08 07:26:47;;;;;;;9.93;8.30;;;;;;;18.03;59.80;95303.78;5057736;28;20205;-71
2022/09/08 07:29:20;;;;;;;9.90;7.32;;;;;;;18.10;59.99;95300.22;5057047;28;20217;-71
2022/09/08 07:31:49;;;;;;;8.85;7.60;;;;;;;18.19;60.23;95292.22;5057706;28;20190;-71
2022/09/08 07:34:19;;;;;;;8.30;7.50;;;;;;;18.29;60.09;95288.66;5056262;28;20190;-71
2022/09/08 07:36:50;;;;;;;7.10;6.40;;;;;;;18.38;60.09;95294.66;5057164;28;20198;-71
2022/09/08 07:39:21;;;;;;;7.20;6.50;;;;;;;18.50;60.01;95297.06;5056641;28;20249;-71
2022/09/08 07:41:50;;;;;;;7.13;6.38;;;;;;;18.57;59.38;95296.25;5057489;28;20193;-71
2022/09/08 07:44:19;;;;;;;8.05;6.85;;;;;;;18.61;58.91;95294.25;5056519;28;20194;-71
2022/09/08 07:47:12;;;;;;;7.40;6.70;;;;;;;18.67;58.44;95289.88;5056393;28;20200;-71
2022/09/08 07:49:46;;;;;;;9.82;7.40;;;;;;;18.71;58.31;95290.69;5056071;28;20549;-71
2022/09/08 07:52:20;;;;;;;9.70;6.97;;;;;;;18.75;58.11;95285.91;5056003;28;20210;-70
2022/09/08 07:55:00;;;;;;;9.85;7.70;;;;;;;18.80;58.44;95286.69;5056805;28;20197;-71
2022/09/08 07:57:35;;;;;;;7.68;6.68;;;;;;;18.83;58.06;95283.91;5056041;28;20193;-71
2022/09/08 08:00:06;;;;;;;6.38;5.88;;;;;;;18.86;58.12;95283.09;5089509;28;20539;-71
2022/09/08 08:02:45;;;;;;;8.75;6.45;;;;;;;18.93;58.06;95279.50;5056151;28;20202;-71
2022/09/08 08:05:19;;;;;;;8.15;6.30;;;;;;;18.94;57.84;95273.50;5055902;28;20637;-71
2022/09/08 08:07:53;;;;;;;6.22;5.63;;;;;;;18.98;57.78;95281.88;5055812;28;20660;-70
2022/09/08 08:10:24;;;;;;;7.28;6.38;;;;;;;19.04;57.61;95291.47;5055793;28;20256;-70
2022/09/08 08:12:55;;;;;;;6.22;5.72;;;;;;;19.12;57.73;95283.84;5056428;28;20206;-71
2022/09/08 08:15:24;;;;;;;6.25;5.65;;;;;;;19.23;57.63;95282.63;5056296;28;20201;-71
2022/09/08 08:17:55;;;;;;;6.10;5.60;;;;;;;19.42;57.01;95286.16;5056778;28;20201;-71
2022/09/08 08:20:34;;;;;;;6.05;5.53;;;;;;;19.48;56.74;95290.94;5056475;28;20269;-72
2022/09/08 08:23:41;;;;;;;6.18;5.57;;;;;;;19.56;55.90;95283.31;5056821;28;20173;-71
2022/09/08 08:26:19;;;;;;;8.52;5.40;;;;;;;19.59;55.69;95285.28;5037132;28;20227;-70
2022/09/08 08:28:46;;;;;;;5.90;5.40;;;;;;;19.63;55.73;95283.31;5055507;28;20224;-70
2022/09/08 08:31:27;;;;;;;6.88;5.20;;;;;;;19.76;55.52;95280.06;5056695;28;20186;-70
2022/09/08 08:33:59;;;;;;;6.50;5.53;;;;;;;19.80;55.61;95276.03;5055649;28;20200;-70
2022/09/08 08:36:27;;;;;;;6.72;6.03;;;;;;;19.86;55.44;95276.38;5056436;28;20182;-70
2022/09/08 08:39:05;;;;;;;7.88;5.85;;;;;;;19.87;55.10;95270.41;5055402;28;20225;-70
2022/09/08 08:41:40;;;;;;;6.22;5.63;;;;;;;20.02;55.13;95268.31;5055317;28;20203;-70
2022/09/08 08:44:21;;;;;;;6.55;5.13;;;;;;;20.14;54.98;95262.22;5055305;28;20236;-71
2022/09/08 08:47:28;;;;;;;5.60;5.07;;;;;;;20.20;55.12;95260.59;5055404;28;20197;-70
2022/09/08 08:50:19;;;;;;;5.78;5.22;;;;;;;20.27;54.96;95242.94;5054685;28;20202;-69
2022/09/08 08:52:53;;;;;;;6.18;5.63;;;;;;;20.26;54.78;95249.75;5056111;28;20669;-70
2022/09/08 08:55:35;;;;;;;5.63;5.15;;;;;;;20.30;54.97;95244.94;5055668;28;20206;-70
2022/09/08 08:58:16;;;;;;;7.20;6.50;;;;;;;20.51;53.96;95238.38;5055294;28;20247;-71
2022/09/08 09:00:48;;;;;;;7.50;6.70;;;;;;;20.61;53.85;95226.28;5054885;28;20204;-71
2022/09/08 09:03:39;;;;;;;6.28;5.78;;;;;;;20.61;54.29;95234.69;5054699;28;20208;-70
2022/09/08 09:06:43;;;;;;;6.63;6.03;;;;;;;20.81;54.85;95222.91;5055149;28;20205;-70
2022/09/08 09:09:26;;;;;;;6.38;5.75;;;;;;;20.99;53.95;95215.09;5057550;28;20213;-71
2022/09/08 09:12:15;;;;;;;6.82;6.22;;;;;;;21.20;53.70;95210.44;5054963;28;20198;-71
2022/09/08 09:15:07;;;;;;;7.78;6.30;;;;;;;21.35;52.92;95200.69;5068952;28;20208;-70
2022/09/08 09:17:55;;;;;;;5.85;5.28;;;;;;;21.45;52.64;95196.16;5054840;28;20202;-70
2022/09/08 09:20:43;;;;;;;6.82;6.18;;;;;;;21.54;52.43;95193.66;5054593;28;20197;-70
2022/09/08 09:23:15;;;;;;;7.03;6.30;;;;;;;21.66;52.49;95195.88;5054750;28;20209;-70
2022/09/08 09:25:54;;;;;;;6.63;6.00;;;;;;;21.76;51.97;95194.16;5054828;28;20212;-71
2022/09/08 09:28:44;;;;;;;6.68;6.07;;;;;;;21.76;51.07;95180.91;5055555;28;20207;-72
2022/09/08 09:31:42;;;;;;;6.68;6.03;;;;;;;21.89;51.28;95186.72;5054795;28;20201;-70
2022/09/08 09:34:22;;;;;;;6.55;5.95;;;;;;;22.03;50.16;95180.88;5055011;28;20193;-70
2022/09/08 09:36:58;;;;;;;8.82;6.50;;;;;;;22.05;50.09;95186.09;5054798;28;20198;-70
2022/09/08 09:39:46;;;;;;;6.70;6.00;;;;;;;22.10;50.73;95172.34;5054334;28;20228;-70
2022/09/08 09:42:47;;;;;;;6.97;6.28;;;;;;;22.15;49.57;95170.31;5044228;28;20205;-70
2022/09/08 09:45:35;;;;;;;6.78;5.80;;;;;;;22.25;49.96;95169.34;5053960;28;20204;-71
2022/09/08 09:48:31;;;;;;;6.90;5.80;;;;;;;22.44;49.01;95165.81;5087927;28;20198;-70
2022/09/08 09:51:04;;;;;;;6.70;5.60;;;;;;;22.50;48.60;95161.28;5054106;28;20210;-70
2022/09/08 09:53:45;;;;;;;6.60;5.85;;;;;;;22.58;47.90;95153.50;5054292;28;20202;-70
2022/09/08 09:56:39;;;;;;;6.70;5.88;;;;;;;22.67;47.81;95156.56;5087467;28;20201;-70
2022/09/08 09:59:26;;;;;;;5.65;5.18;;;;;;;22.76;49.17;95145.53;5054339;28;20213;-70
2022/09/08 10:02:02;;;;;;;6.38;5.80;;;;;;;22.82;49.00;95151.47;5054855;28;20190;-70
2022/09/08 10:05:17;;;;;;;7.47;5.97;;;;;;;22.92;48.54;95130.81;5055082;28;20193;-70
2022/09/08 10:08:08;;;;;;;6.32;5.72;;;;;;;23.04;47.12;95135.81;4996943;28;20353;-70
2022/09/08 10:11:01;;;;;;;6.45;5.82;;;;;;;23.13;47.76;95124.00;5056198;28;20217;-71
2022/09/08 10:13:49;;;;;;;5.78;5.32;;;;;;;23.16;46.65;95119.50;5045010;28;20213;-71
2022/09/08 10:16:49;;;;;;;6.28;5.75;;;;;;;23.17;46.85;95109.84;5059072;28;20181;-71
2022/09/08 10:19:41;;;;;;;6.03;5.38;;;;;;;23.25;46.77;95105.66;5058478;28;20220;-71
2022/09/08 10:22:44;;;;;;;6.10;5.60;;;;;;;23.32;46.60;95110.34;5042633;28;20214;-70
2022/09/08 10:25:45;;;;;;;6.35;5.70;;;;;;;23.34;46.23;95099.41;5059143;28;20226;-70
2022/09/08 10:28:41;;;;;;;6.35;5.70;;;;;;;23.41;46.62;95091.63;5057922;28;20204;-70
2022/09/08 10:31:46;;;;;;;6.70;6.10;;;;;;;23.52;45.65;95097.00;5057727;28;20241;-71
2022/09/08 10:34:46;;;;;;;6.18;5.60;;;;;;;23.58;45.63;95095.25;5035078;28;20205;-71
2022/09/08 10:37:27;;;;;;;6.68;5.90;;;;;;;23.67;45.95;95089.06;5057760;28;20194;-71
2022/09/08 10:40:09;;;;;;;6.20;5.70;;;;;;;23.74;45.09;95089.69;5057729;28;20213;-70
2022/09/08 10:42:56;;;;;;;7.55;5.97;;;;;;;23.68;45.01;95085.03;5057573;28;20296;-71
2022/09/08 10:45:44;;;;;;;7.00;6.30;;;;;;;23.77;45.10;95079.56;5057291;28;20197;-71
2022/09/08 10:48:40;;;;;;;6.38;5.35;;;;;;;23.92;45.01;95083.63;5057671;28;20201;-71
2022/09/08 10:51:20;;;;;;;6.82;5.78;;;;;;;24.03;45.41;95074.91;5058629;28;20186;-70
2022/09/08 10:53:59;;;;;;;6.47;5.88;;;;;;;24.09;45.04;95075.97;5058110;28;20204;-70
2022/09/08 10:56:27;;;;;;;6.38;5.80;;;;;;;24.11;44.85;95078.34;5058406;28;20186;-70
2022/09/08 10:59:30;;;;;;;7.30;6.60;;;;;;;24.09;44.97;95078.00;5057520;28;20221;-70
2022/09/08 11:02:16;;;;;;;7.22;6.63;;;;;;;24.03;45.13;95070.06;5056754;28;20204;-70
2022/09/08 11:05:23;;;;;;;6.40;5.90;;;;;;;24.09;45.57;95069.53;5057063;28;20202;-70
2022/09/08 11:08:31;;;;;;;6.32;5.70;;;;;;;24.00;45.43;95059.69;5057988;28;20238;-70
2022/09/08 11:11:23;;;;;;;7.25;6.65;;;;;;;24.10;45.42;95068.31;5054094;28;20209;-70
2022/09/08 11:14:00;;;;;;;6.63;6.03;;;;;;;24.24;44.78;95048.22;5056927;28;20193;-70
2022/09/08 11:16:38;;;;;;;7.22;6.72;;;;;;;24.24;45.77;95051.81;5057757;28;20193;-70
2022/09/08 11:19:39;;;;;;;7.45;6.60;;;;;;;24.36;45.00;95046.69;5057147;28;20218;-70
2022/09/08 11:22:23;;;;;;;6.60;6.03;;;;;;;24.44;45.14;95057.38;5056974;28;20193;-70
2022/09/08 11:24:59;;;;;;;6.47;5.93;;;;;;;24.57;44.74;95045.34;5057598;28;20178;-70
2022/09/08 11:27:33;;;;;;;7.03;6.32;;;;;;;24.66;44.65;95049.13;5056946;28;20201;-70
2022/09/08 11:30:13;;;;;;;7.60;6.13;;;;;;;24.73;43.76;95048.16;5090546;28;20206;-69
2022/09/08 11:32:44;;;;;;;6.85;6.13;;;;;;;24.74;44.16;95055.34;5057755;28;20182;-70
2022/09/08 11:35:33;;;;;;;7.28;6.55;;;;;;;24.63;44.85;95052.03;5056375;28;20205;-70
2022/09/08 11:38:17;;;;;;;7.05;6.55;;;;;;;24.78;43.76;95050.41;5056304;28;20251;-70
2022/09/08 11:41:21;;;;;;;6.88;6.30;;;;;;;24.84;44.44;95057.09;5056406;28;20633;-70
2022/09/08 11:44:01;;;;;;;7.30;6.60;;;;;;;24.84;44.49;95059.13;5073339;28;20193;-70
2022/09/08 11:46:38;;;;;;;7.65;6.82;;;;;;;24.87;43.57;95049.75;5056512;28;20265;-70
2022/09/08 11:49:38;;;;;;;7.20;6.53;;;;;;;24.94;43.71;95053.16;5057655;28;20185;-70
2022/09/08 11:52:28;;;;;;;7.18;6.68;;;;;;;24.91;44.22;95056.88;5077155;28;20206;-70
2022/09/08 11:55:27;;;;;;;6.70;6.10;;;;;;;24.77;44.29;95048.84;5056543;28;20205;-70
2022/09/08 11:58:06;;;;;;;6.90;6.30;;;;;;;24.79;44.73;95048.38;5044655;28;20216;-70
2022/09/08 12:00:42;;;;;;;6.95;6.35;;;;;;;24.81;44.74;95052.34;5056363;28;20650;-70
2022/09/08 12:03:38;;;;;;;7.07;6.45;;;;;;;24.76;44.82;95046.44;5056209;28;20222;-71
2022/09/08 12:06:28;;;;;;;7.32;6.50;;;;;;;24.87;44.00;95044.09;5055788;28;20212;-70
2022/09/08 12:09:22;;;;;;;7.32;6.72;;;;;;;24.96;43.59;95041.44;5048307;28;20304;-70
2022/09/08 12:12:11;;;;;;;6.95;6.30;;;;;;;24.84;44.17;95043.00;5055786;28;20225;-70
2022/09/08 12:14:44;;;;;;;7.35;6.70;;;;;;;24.74;44.71;95032.78;5055734;28;20205;-70